ヤクーツク の空港の天気 - METARとTAF

ヤクーツク空港 ( UEEE / YKS ) - ロシア ヤクーツク
飛行場実況気象(Metar)
観測時間02/28 09:30 +09 (02/28 00:30 UTC)
風向・風速北西 6m/s
視程5000m
天気現象弱い雪
なし
気温-23℃
湿度76%
気圧1025hPa
METARUEEE 280030Z 32006MPS 5000 -SN NSC M23/M26 Q1025 R23L/490150 NOSIG RMK QFE760
過去の天気等 Google飛行場航空写真 Wunderground天気予報

過去48時間のMETAR

飛行場予報(TAF)
発表時間: 2/28 02:00 +09 (2/27 17:00 UTC)
予報対象時間: 28日3時 +09 ~ 1日9時 +09
風向・風速北北西 3m/s
視程10km以上
天気現象弱い雪
全天を覆う雲 雲底高度 2,130m
28日9時 +09 ~ 28日24時 +09 に一時的に
視程2,100m
天気現象弱い雪
TAF UEEE 271700Z 2718/2824 33003MPS 9999 -SN OVC070
TEMPO 2800/2815 2100 -SN